Slavutich-16 — ENYT — position and weather

sailwx.info

Track history (hours):
 
Tides and Currents Weather Stations Pressure Air Temp Water Temp Dewpoint Dewpoint Depression Visibility Wind Speed Wind Dir Waves Ship Positions

Slavutich-16

Last reported at 2014-Sep-13 05:05 UTC. Time now 2014-Sep-17 05:30 UTC.
Position N 47°58' E 035°07'.

Length 108 m; draft 2.4 m.

Type: Cargo ship. MMSI: 272046000.

Date/timePositionNaut miles runAvg speedWind from/ knotsBaromVisibWave heightAir tempDewpointWater temp
2014-Sep-13 05:05N 47°58' E 035°07'3 5.0
2014-Sep-13 04:33N 47°55' E 035°07'4 2.7
2014-Sep-13 03:12N 47°52' E 035°05'2 3.9
2014-Sep-13 02:33N 47°50' E 035°07'145 4.3
2014-Sep-11 17:08N 46°32' E 032°07'4 7.8
2014-Sep-11 16:33N 46°33' E 032°01'8 7.9
2014-Sep-11 15:33N 46°35' E 031°50'1 0.0
2014-Sep-10 05:13N 46°35' E 031°51'5 7.0
2014-Sep-10 04:33N 46°33' E 031°57'148 5.5
2014-Sep-09 01:33N 47°43' E 035°09'6 6.2
2014-Sep-09 00:33N 47°49' E 035°08'3 3.1
2014-Sep-08 23:33N 47°52' E 035°05'1 0.7
2014-Sep-08 22:33N 47°52' E 035°06'0 0.0
2014-Sep-08 21:33N 47°52' E 035°06'0 0.0
2014-Sep-08 20:33N 47°52' E 035°06'2 2.0
2014-Sep-08 19:32N 47°54' E 035°07'  
2014-Sep-06 07:11N 47°57' E 035°07'5 7.5
2014-Sep-06 06:33N 47°52' E 035°06'1 0.6
2014-Sep-06 05:30N 47°52' E 035°05'5 5.1
2014-Sep-06 04:33N 47°48' E 035°10'147 5.0
2014-Sep-04 23:27N 46°32' E 032°05'6 6.9
2014-Sep-04 22:33N 46°33' E 031°57'7 6.6
2014-Sep-04 21:29N 46°36' E 031°47'  
Track history (hours):
 
Tides and Currents Weather Stations Pressure Air Temp Water Temp Dewpoint Dewpoint Depression Visibility Wind Speed Wind Dir Waves Ship Positions

Slavutich-16

Last reported at 2014-Sep-13 05:05 UTC. Time now 2014-Sep-17 05:30 UTC.
Position N 47°58' E 035°07'.

Length 108 m; draft 2.4 m.

Type: Cargo ship. MMSI: 272046000.

Date/timePositionNaut miles runAvg speedWind from/ knotsBaromVisibWave heightAir tempDewpointWater temp
2014-Sep-13 05:05N 47°58' E 035°07'3 5.0
2014-Sep-13 04:33N 47°55' E 035°07'4 2.7
2014-Sep-13 03:12N 47°52' E 035°05'2 3.9
2014-Sep-13 02:33N 47°50' E 035°07'145 4.3
2014-Sep-11 17:08N 46°32' E 032°07'4 7.8
2014-Sep-11 16:33N 46°33' E 032°01'8 7.9
2014-Sep-11 15:33N 46°35' E 031°50'1 0.0
2014-Sep-10 05:13N 46°35' E 031°51'5 7.0
2014-Sep-10 04:33N 46°33' E 031°57'148 5.5
2014-Sep-09 01:33N 47°43' E 035°09'6 6.2
2014-Sep-09 00:33N 47°49' E 035°08'3 3.1
2014-Sep-08 23:33N 47°52' E 035°05'1 0.7
2014-Sep-08 22:33N 47°52' E 035°06'0 0.0
2014-Sep-08 21:33N 47°52' E 035°06'0 0.0
2014-Sep-08 20:33N 47°52' E 035°06'2 2.0
2014-Sep-08 19:32N 47°54' E 035°07'  
2014-Sep-06 07:11N 47°57' E 035°07'5 7.5
2014-Sep-06 06:33N 47°52' E 035°06'1 0.6
2014-Sep-06 05:30N 47°52' E 035°05'5 5.1
2014-Sep-06 04:33N 47°48' E 035°10'147 5.0
2014-Sep-04 23:27N 46°32' E 032°05'6 6.9
2014-Sep-04 22:33N 46°33' E 031°57'7 6.6
2014-Sep-04 21:29N 46°36' E 031°47'  

Dump ship's entire track history